Time;durP1;ratioP1;P1;durP2;ratioP2;P2;SDS_P1;SDS_P2;PMS_P1;PMS_P2;Temp;Humidity;BMP_temperature;BMP_pressure;BME280_temperature;BME280_humidity;BME280_pressure;Samples;Min_cycle;Max_cycle;Signal;HPM_P1;HPM_P2
2024/04/16 00:00:44;;;;;;;1.97;1.40;;;7.00;99.90;;;;;;5412266;26;20735;-73
2024/04/16 00:03:13;;;;;;;3.80;1.50;;;7.10;99.90;;;;;;5411987;26;20229;-71
2024/04/16 00:05:39;;;;;;;2.53;1.80;;;7.10;99.90;;;;;;5411877;26;20229;-72
2024/04/16 00:08:07;;;;;;;3.33;1.50;;;7.20;99.90;;;;;;5422123;26;20283;-71
2024/04/16 00:10:33;;;;;;;2.40;1.73;;;7.10;99.90;;;;;;5414413;26;20774;-71
2024/04/16 00:13:02;;;;;;;3.77;2.00;;;7.10;99.90;;;;;;5411752;26;20233;-72
2024/04/16 00:15:28;;;;;;;5.07;1.60;;;7.10;99.90;;;;;;5411740;26;20252;-71
2024/04/16 00:17:59;;;;;;;2.50;1.60;;;7.10;99.90;;;;;;5441037;26;20240;-71
2024/04/16 00:20:25;;;;;;;5.00;1.87;;;7.10;99.90;;;;;;5447513;26;20278;-71
2024/04/16 00:22:54;;;;;;;2.43;2.20;;;7.10;99.90;;;;;;5447047;26;20228;-71
2024/04/16 00:25:20;;;;;;;1.90;1.57;;;7.10;99.90;;;;;;5441226;26;20256;-72
2024/04/16 00:27:48;;;;;;;2.93;2.10;;;7.10;99.90;;;;;;5447284;26;20228;-72
2024/04/16 00:30:14;;;;;;;2.47;1.80;;;7.10;99.90;;;;;;5447417;26;20232;-70
2024/04/16 00:32:43;;;;;;;3.93;2.30;;;7.10;99.90;;;;;;5424437;26;20591;-70
2024/04/16 00:35:11;;;;;;;2.27;2.07;;;7.10;99.90;;;;;;5425490;26;20827;-71
2024/04/16 00:37:40;;;;;;;4.13;2.37;;;7.10;99.90;;;;;;5426364;26;20688;-70
2024/04/16 00:40:07;;;;;;;3.53;2.43;;;7.10;99.90;;;;;;5446888;26;20232;-72
2024/04/16 00:42:35;;;;;;;2.73;2.20;;;7.20;99.90;;;;;;5446889;26;20281;-72
2024/04/16 00:45:02;;;;;;;4.37;2.20;;;7.10;99.90;;;;;;5447285;26;20228;-72
2024/04/16 00:47:31;;;;;;;3.70;2.50;;;7.10;99.90;;;;;;5447317;26;20307;-73
2024/04/16 00:49:57;;;;;;;3.00;2.50;;;7.10;99.90;;;;;;5446915;26;20283;-73
2024/04/16 00:52:28;;;;;;;4.40;2.30;;;7.10;99.90;;;;;;5445924;26;20248;-73
2024/04/16 00:54:54;;;;;;;2.77;2.20;;;7.10;99.90;;;;;;5447192;26;20228;-73
2024/04/16 00:57:23;;;;;;;3.03;2.73;;;7.10;99.90;;;;;;5443926;26;20734;-73
2024/04/16 00:59:51;;;;;;;2.53;2.33;;;7.20;99.90;;;;;;5447147;26;20224;-73
2024/04/16 01:02:21;;;;;;;3.83;2.70;;;7.20;99.90;;;;;;5421837;26;20674;-73
2024/04/16 01:04:47;;;;;;;3.80;2.40;;;7.20;99.90;;;;;;5411406;26;20697;-72
2024/04/16 01:07:16;;;;;;;3.03;2.83;;;7.20;99.90;;;;;;5420178;26;20240;-73
2024/04/16 01:09:44;;;;;;;4.33;2.93;;;7.10;99.90;;;;;;5446722;26;20232;-72
2024/04/16 01:12:13;;;;;;;2.97;2.50;;;7.00;99.90;;;;;;5445810;26;20291;-73
2024/04/16 01:14:39;;;;;;;4.57;2.63;;;7.00;99.90;;;;;;5446669;26;20274;-73
2024/04/16 01:17:08;;;;;;;2.97;2.50;;;7.00;99.90;;;;;;5446342;26;20718;-73
2024/04/16 01:19:34;;;;;;;4.27;2.60;;;6.90;99.90;;;;;;5446440;26;20730;-73
2024/04/16 01:22:03;;;;;;;3.53;2.80;;;6.90;99.90;;;;;;5430326;26;20241;-72
2024/04/16 01:24:31;;;;;;;3.80;3.00;;;6.90;99.90;;;;;;5410851;26;20284;-73
2024/04/16 01:27:00;;;;;;;3.13;2.93;;;6.90;99.90;;;;;;5414142;26;20697;-73
2024/04/16 01:29:26;;;;;;;3.70;2.70;;;6.90;99.90;;;;;;5412922;26;20276;-73
2024/04/16 01:31:54;;;;;;;3.13;2.40;;;6.90;99.90;;;;;;5445731;26;20726;-73
2024/04/16 01:34:20;;;;;;;5.03;3.63;;;6.90;99.90;;;;;;5446147;26;20282;-73
2024/04/16 01:36:49;;;;;;;3.20;2.57;;;6.80;99.90;;;;;;5443365;26;20224;-73
2024/04/16 01:39:14;;;;;;;3.30;3.00;;;6.90;99.90;;;;;;5443367;26;20643;-73
2024/04/16 01:41:46;;;;;;;4.63;3.10;;;6.90;99.90;;;;;;5432917;26;20241;-71
2024/04/16 01:44:12;;;;;;;2.70;2.50;;;6.90;99.90;;;;;;5410519;26;20225;-72
2024/04/16 01:46:40;;;;;;;2.80;2.60;;;6.80;99.90;;;;;;5438034;26;20278;-71
2024/04/16 01:49:06;;;;;;;3.03;2.67;;;6.90;99.90;;;;;;5445796;26;20286;-73
2024/04/16 01:51:34;;;;;;;2.67;2.47;;;6.90;99.90;;;;;;5445101;26;20279;-73
2024/04/16 01:54:00;;;;;;;4.90;2.70;;;6.80;99.90;;;;;;5446266;26;20228;-72
2024/04/16 01:56:29;;;;;;;2.67;2.57;;;6.70;99.90;;;;;;5438665;26;20234;-72
2024/04/16 01:58:57;;;;;;;4.10;2.70;;;6.70;99.90;;;;;;5410637;26;20288;-72
2024/04/16 02:01:26;;;;;;;3.83;2.37;;;6.60;99.90;;;;;;5421298;26;20328;-72
2024/04/16 02:03:52;;;;;;;3.17;2.97;;;6.60;99.90;;;;;;5446389;26;20220;-72
2024/04/16 02:06:20;;;;;;;4.10;2.43;;;6.60;99.90;;;;;;5445579;26;20267;-73
2024/04/16 02:08:46;;;;;;;3.13;2.60;;;6.50;99.90;;;;;;5413887;26;20232;-72
2024/04/16 02:11:15;;;;;;;3.83;2.80;;;6.60;99.90;;;;;;5434193;26;20722;-72
2024/04/16 02:13:41;;;;;;;3.33;2.40;;;6.50;99.90;;;;;;5427429;26;20286;-72
2024/04/16 02:16:12;;;;;;;4.60;2.87;;;6.50;99.90;;;;;;5425766;26;20236;-72
2024/04/16 02:18:38;;;;;;;2.77;2.57;;;6.50;99.90;;;;;;5443516;26;20240;-77
2024/04/16 02:21:06;;;;;;;3.13;2.77;;;6.50;99.90;;;;;;5439060;26;20279;-72
2024/04/16 02:23:32;;;;;;;3.70;2.90;;;6.50;99.90;;;;;;5410226;26;20422;-73
2024/04/16 02:26:01;;;;;;;3.63;2.33;;;6.50;99.90;;;;;;5415366;26;20282;-72
2024/04/16 02:28:27;;;;;;;3.53;3.13;;;6.50;99.90;;;;;;5432411;26;20298;-72
2024/04/16 02:30:55;;;;;;;3.23;2.80;;;6.50;99.90;;;;;;5440520;26;20714;-72
2024/04/16 02:33:24;;;;;;;4.67;2.70;;;6.40;99.90;;;;;;5441050;26;20236;-72
2024/04/16 02:35:55;;;;;;;4.13;2.77;;;6.30;99.90;;;;;;5443251;26;20240;-72
2024/04/16 02:38:21;;;;;;;5.13;2.80;;;6.30;99.90;;;;;;5443050;26;20622;-72
2024/04/16 02:40:50;;;;;;;3.73;2.80;;;6.30;99.90;;;;;;5442866;26;20274;-72
2024/04/16 02:43:16;;;;;;;2.73;2.50;;;6.20;99.90;;;;;;5416646;26;20229;-71
2024/04/16 02:45:44;;;;;;;3.00;2.80;;;6.30;99.90;;;;;;5411881;26;20275;-72
2024/04/16 02:48:10;;;;;;;3.07;2.80;;;6.20;99.90;;;;;;5442262;26;20863;-73
2024/04/16 02:50:42;;;;;;;6.07;2.90;;;6.20;99.90;;;;;;5427805;26;20249;-73
2024/04/16 02:53:07;;;;;;;3.30;2.57;;;6.20;99.90;;;;;;5411538;26;20229;-73
2024/04/16 02:55:36;;;;;;;4.00;2.60;;;6.20;99.90;;;;;;5445411;26;20604;-73
2024/04/16 02:58:02;;;;;;;2.50;2.33;;;6.10;99.90;;;;;;5442678;26;20232;-73
2024/04/16 03:00:31;;;;;;;3.17;2.40;;;6.10;99.90;;;;;;5442851;26;20571;-73
2024/04/16 03:02:57;;;;;;;2.77;2.50;;;6.20;99.90;;;;;;5442717;26;20228;-73
2024/04/16 03:05:25;;;;;;;2.70;2.43;;;6.20;99.90;;;;;;5442916;26;20734;-73
2024/04/16 03:07:54;;;;;;;3.57;2.27;;;6.40;99.90;;;;;;5442686;26;20626;-73
2024/04/16 03:10:23;;;;;;;2.90;2.20;;;6.40;99.90;;;;;;5442911;26;20279;-74
2024/04/16 03:12:51;;;;;;;5.27;2.20;;;6.30;99.90;;;;;;5443165;26;20239;-74
2024/04/16 03:15:19;;;;;;;3.20;2.30;;;6.30;99.90;;;;;;5444953;26;20228;-73
2024/04/16 03:17:45;;;;;;;2.50;2.30;;;6.30;99.90;;;;;;5445413;26;20270;-73
2024/04/16 03:20:14;;;;;;;5.00;2.53;;;6.30;99.90;;;;;;5444771;26;20271;-73
2024/04/16 03:22:40;;;;;;;2.90;2.33;;;6.30;99.90;;;;;;5444946;26;20236;-73
2024/04/16 03:25:12;;;;;;;2.40;2.30;;;6.20;99.90;;;;;;5444919;26;20240;-73
2024/04/16 03:27:40;;;;;;;3.47;2.30;;;6.30;99.90;;;;;;5445138;26;20271;-73
2024/04/16 03:30:10;;;;;;;4.93;1.90;;;6.40;99.90;;;;;;5444317;26;20247;-73
2024/04/16 03:32:36;;;;;;;2.20;1.93;;;6.40;99.90;;;;;;5443073;26;21121;-73
2024/04/16 03:35:05;;;;;;;1.97;1.87;;;6.30;99.90;;;;;;5444855;26;20224;-73
2024/04/16 03:37:33;;;;;;;2.10;2.00;;;6.40;99.90;;;;;;5444559;26;20228;-73
2024/04/16 03:40:02;;;;;;;3.60;2.00;;;6.30;99.90;;;;;;5444755;26;20228;-73
2024/04/16 03:42:33;;;;;;;5.70;3.03;;;6.20;99.90;;;;;;5444548;26;20279;-73
2024/04/16 03:45:01;;;;;;;1.93;1.83;;;6.20;99.90;;;;;;5445044;26;20255;-73
2024/04/16 03:47:29;;;;;;;2.30;2.00;;;6.10;99.90;;;;;;5444711;26;20236;-73
2024/04/16 03:49:57;;;;;;;2.00;1.90;;;6.20;99.90;;;;;;5444726;26;20270;-73
2024/04/16 03:52:25;;;;;;;2.77;1.77;;;6.20;99.90;;;;;;5444260;26;20228;-73
2024/04/16 03:54:53;;;;;;;1.90;1.80;;;6.20;99.90;;;;;;5444691;26;20232;-73
2024/04/16 03:57:19;;;;;;;3.00;1.90;;;6.10;99.90;;;;;;5444215;26;20232;-73
2024/04/16 04:02:34;;;;;;;1.80;1.70;;;6.10;99.90;;;;;;5447337;26;20320;-75
2024/04/16 04:05:00;;;;;;;1.83;1.50;;;6.10;99.90;;;;;;5444461;26;20228;-73
2024/04/16 04:07:29;;;;;;;1.70;1.60;;;6.20;99.90;;;;;;5443792;26;20230;-73
2024/04/16 04:09:55;;;;;;;4.10;1.90;;;6.10;99.90;;;;;;5444379;26;20231;-73
2024/04/16 04:12:24;;;;;;;1.97;1.83;;;6.10;99.90;;;;;;5444166;26;20568;-73
2024/04/16 04:14:52;;;;;;;1.90;1.80;;;6.00;99.90;;;;;;5444174;26;20232;-73
2024/04/16 04:17:21;;;;;;;1.77;1.67;;;6.10;99.90;;;;;;5444162;26;20706;-73
2024/04/16 04:19:46;;;;;;;1.70;1.60;;;6.10;99.90;;;;;;5444094;26;20248;-73
2024/04/16 04:22:15;;;;;;;1.80;1.70;;;6.20;99.90;;;;;;5443648;26;20723;-73
2024/04/16 04:24:41;;;;;;;2.90;1.73;;;6.10;99.90;;;;;;5444102;26;20228;-73
2024/04/16 04:27:09;;;;;;;1.93;1.60;;;6.10;99.90;;;;;;5443481;26;20290;-73
2024/04/16 04:29:36;;;;;;;2.13;1.70;;;6.10;99.90;;;;;;5443848;26;20574;-73
2024/04/16 04:32:08;;;;;;;2.90;1.70;;;6.10;99.90;;;;;;5443517;26;20232;-73
2024/04/16 04:34:33;;;;;;;1.70;1.60;;;6.10;99.90;;;;;;5444133;26;20220;-73
2024/04/16 04:37:02;;;;;;;2.67;1.93;;;6.10;99.90;;;;;;5443366;26;20262;-73
2024/04/16 04:39:28;;;;;;;1.80;1.70;;;6.10;99.90;;;;;;5443555;26;20275;-73
2024/04/16 04:41:56;;;;;;;1.87;1.77;;;6.20;99.90;;;;;;5443458;26;21029;-73
2024/04/16 04:44:22;;;;;;;2.07;1.80;;;6.20;99.90;;;;;;5446154;26;20701;-73
2024/04/16 04:46:51;;;;;;;3.10;1.83;;;6.30;99.90;;;;;;5447155;26;20563;-73
2024/04/16 04:49:19;;;;;;;3.33;1.90;;;6.40;99.90;;;;;;5445990;26;20240;-73
2024/04/16 04:51:48;;;;;;;2.87;1.60;;;6.40;99.90;;;;;;5443898;26;20282;-73
2024/04/16 04:54:14;;;;;;;1.97;1.87;;;6.40;99.90;;;;;;5447138;26;20267;-73
2024/04/16 04:56:42;;;;;;;2.77;2.00;;;6.20;99.90;;;;;;5447427;26;20639;-73
2024/04/16 04:59:08;;;;;;;3.30;2.00;;;6.20;99.90;;;;;;5447269;26;20294;-73
2024/04/16 05:01:37;;;;;;;2.00;1.90;;;6.10;99.90;;;;;;5446963;26;20232;-73
2024/04/16 05:04:03;;;;;;;2.17;2.00;;;6.10;99.90;;;;;;5447116;26;20703;-72
2024/04/16 05:06:37;;;;;;;3.60;2.37;;;6.00;99.90;;;;;;5446487;26;20232;-72
2024/04/16 05:09:03;;;;;;;2.80;2.10;;;6.00;99.90;;;;;;5446984;26;20803;-73
2024/04/16 05:11:32;;;;;;;2.33;2.13;;;6.00;99.90;;;;;;5447037;26;20753;-73
2024/04/16 05:13:58;;;;;;;2.70;2.40;;;6.00;99.90;;;;;;5446860;26;20581;-72
2024/04/16 05:16:26;;;;;;;3.03;2.73;;;6.00;99.90;;;;;;5454300;26;20235;-73
2024/04/16 05:18:52;;;;;;;2.60;2.40;;;5.90;99.90;;;;;;5483208;26;20227;-72
2024/04/16 05:21:21;;;;;;;2.60;2.40;;;6.10;99.90;;;;;;5483128;26;20281;-72
2024/04/16 05:23:50;;;;;;;4.60;2.47;;;6.10;99.90;;;;;;5456195;26;20348;-72
2024/04/16 05:26:21;;;;;;;2.40;2.07;;;6.10;99.90;;;;;;5446764;26;20228;-72
2024/04/16 05:28:47;;;;;;;3.40;2.50;;;6.10;99.90;;;;;;5446787;26;20231;-72
2024/04/16 05:31:16;;;;;;;3.17;2.80;;;6.20;99.90;;;;;;5446572;26;20322;-72
2024/04/16 05:33:42;;;;;;;2.50;2.30;;;6.20;99.90;;;;;;5446537;26;20228;-73
2024/04/16 05:36:11;;;;;;;2.70;2.50;;;6.20;99.90;;;;;;5446398;26;20220;-73
2024/04/16 05:38:37;;;;;;;2.57;2.30;;;6.20;99.90;;;;;;5446550;26;20229;-74
2024/04/16 05:41:09;;;;;;;3.20;3.00;;;6.20;99.90;;;;;;5446360;26;20779;-72
2024/04/16 05:43:34;;;;;;;4.93;2.77;;;6.20;99.90;;;;;;5446810;26;20225;-72
2024/04/16 05:46:03;;;;;;;3.57;2.83;;;6.20;99.90;;;;;;5446797;26;20232;-73
2024/04/16 05:48:29;;;;;;;2.70;2.50;;;6.20;99.90;;;;;;5446740;26;20291;-72
2024/04/16 05:50:57;;;;;;;3.27;2.37;;;6.20;99.90;;;;;;5446455;26;20236;-72
2024/04/16 05:53:23;;;;;;;5.70;2.70;;;6.20;99.90;;;;;;5446478;26;20948;-72
2024/04/16 05:55:52;;;;;;;2.60;2.50;;;6.00;99.90;;;;;;5444920;26;20262;-72
2024/04/16 05:58:22;;;;;;;2.50;2.30;;;6.00;99.90;;;;;;5446418;26;20280;-72
2024/04/16 06:00:51;;;;;;;2.37;2.27;;;6.00;99.90;;;;;;5446290;26;20293;-72
2024/04/16 06:03:17;;;;;;;3.20;3.00;;;5.90;99.90;;;;;;5445344;26;20240;-72
2024/04/16 06:05:46;;;;;;;4.30;4.00;;;5.90;99.90;;;;;;5446419;26;20316;-72
2024/04/16 06:08:12;;;;;;;2.63;2.43;;;6.00;99.90;;;;;;5446116;26;20228;-72
2024/04/16 06:10:40;;;;;;;3.83;2.67;;;6.10;99.90;;;;;;5446423;26;20591;-72
2024/04/16 06:13:06;;;;;;;3.33;2.80;;;6.00;99.90;;;;;;5445738;26;20655;-72
2024/04/16 06:15:37;;;;;;;3.50;2.60;;;6.10;99.90;;;;;;5446078;26;20280;-72
2024/04/16 06:18:09;;;;;;;4.97;2.77;;;6.00;99.90;;;;;;5446077;26;20224;-72
2024/04/16 06:20:37;;;;;;;4.43;3.30;;;6.00;99.90;;;;;;5445791;26;20236;-72
2024/04/16 06:23:04;;;;;;;3.40;3.10;;;6.00;99.90;;;;;;5445671;26;20290;-72
2024/04/16 06:25:32;;;;;;;2.80;2.60;;;6.00;99.90;;;;;;5445720;26;20232;-72
2024/04/16 06:27:58;;;;;;;3.13;2.77;;;6.10;99.90;;;;;;5445659;26;20715;-72
2024/04/16 06:30:27;;;;;;;3.10;2.80;;;6.20;99.90;;;;;;5445877;26;20270;-72
2024/04/16 06:32:55;;;;;;;3.57;2.73;;;6.20;99.90;;;;;;5445900;26;20231;-72
2024/04/16 06:35:24;;;;;;;3.27;2.73;;;6.30;99.90;;;;;;5445962;26;20224;-72
2024/04/16 06:37:50;;;;;;;4.70;3.23;;;6.20;99.90;;;;;;5445245;26;20761;-72
2024/04/16 06:40:18;;;;;;;2.90;2.67;;;6.10;99.90;;;;;;5445942;26;20228;-72
2024/04/16 06:42:44;;;;;;;3.30;3.00;;;6.10;99.90;;;;;;5446168;26;20259;-72
2024/04/16 06:45:13;;;;;;;3.10;2.87;;;6.10;99.90;;;;;;5445487;26;20224;-73
2024/04/16 06:47:38;;;;;;;3.73;3.43;;;6.00;99.90;;;;;;5445766;26;20295;-72
2024/04/16 06:50:10;;;;;;;6.50;3.30;;;6.00;99.90;;;;;;5445496;26;20228;-72
2024/04/16 06:52:36;;;;;;;3.57;3.27;;;6.10;99.90;;;;;;5445461;26;20274;-72
2024/04/16 06:55:04;;;;;;;3.77;3.30;;;6.10;99.90;;;;;;5445765;26;20425;-72
2024/04/16 06:57:30;;;;;;;6.37;3.60;;;6.20;99.90;;;;;;5445466;26;20239;-72
2024/04/16 06:59:59;;;;;;;5.13;3.40;;;6.10;99.90;;;;;;5445122;26;20287;-73
2024/04/16 07:02:25;;;;;;;3.67;3.37;;;6.20;99.90;;;;;;5444953;26;20232;-72
2024/04/16 07:04:53;;;;;;;5.63;3.53;;;6.20;99.90;;;;;;5445483;26;20224;-72
2024/04/16 07:07:22;;;;;;;3.77;3.57;;;6.30;99.90;;;;;;5444438;26;20220;-72
2024/04/16 07:09:50;;;;;;;4.13;3.73;;;6.20;99.90;;;;;;5466493;26;20602;-72
2024/04/16 07:12:16;;;;;;;5.70;4.20;;;6.20;99.90;;;;;;5481551;26;20219;-72
2024/04/16 07:14:45;;;;;;;5.57;3.90;;;6.20;99.90;;;;;;5478268;26;20839;-72
2024/04/16 07:17:11;;;;;;;5.77;4.30;;;6.20;99.90;;;;;;5444801;26;20353;-73
2024/04/16 07:19:39;;;;;;;3.53;3.33;;;6.10;99.90;;;;;;5445287;26;20707;-72
2024/04/16 07:22:06;;;;;;;8.00;4.13;;;6.10;99.90;;;;;;5444570;26;20320;-72
2024/04/16 07:24:37;;;;;;;5.73;3.67;;;6.20;99.90;;;;;;5445051;26;20232;-72
2024/04/16 07:27:03;;;;;;;4.10;3.70;;;6.20;99.90;;;;;;5444676;26;20764;-73
2024/04/16 07:29:32;;;;;;;4.50;3.70;;;6.20;99.90;;;;;;5444868;26;20612;-72
2024/04/16 07:31:57;;;;;;;5.90;3.73;;;6.30;99.90;;;;;;5444509;26;20228;-72
2024/04/16 07:34:26;;;;;;;5.57;4.30;;;6.30;99.90;;;;;;5444771;26;20273;-72
2024/04/16 07:36:52;;;;;;;5.33;4.03;;;6.40;99.90;;;;;;5444132;26;20228;-72
2024/04/16 07:39:20;;;;;;;5.83;3.60;;;6.40;99.90;;;;;;5444540;26;20272;-72
2024/04/16 07:41:49;;;;;;;7.60;3.63;;;6.40;99.90;;;;;;5444586;26;20271;-72
2024/04/16 07:44:19;;;;;;;6.53;3.97;;;6.50;99.90;;;;;;5444248;26;20240;-73
2024/04/16 07:46:45;;;;;;;7.13;4.00;;;6.50;99.90;;;;;;5443999;26;20297;-73
2024/04/16 07:49:14;;;;;;;8.53;3.70;;;6.50;99.90;;;;;;5443953;26;20240;-73
2024/04/16 07:51:40;;;;;;;4.53;3.63;;;6.60;99.90;;;;;;5443729;26;20228;-72
2024/04/16 07:54:08;;;;;;;4.93;3.80;;;6.70;99.90;;;;;;5443836;26;20262;-72
2024/04/16 07:56:34;;;;;;;5.23;3.37;;;6.70;99.90;;;;;;5443742;26;20738;-72
2024/04/16 07:59:05;;;;;;;3.97;3.33;;;6.60;99.90;;;;;;5444222;26;20240;-72
2024/04/16 08:01:31;;;;;;;5.07;3.80;;;6.60;99.90;;;;;;5444240;26;20271;-72
2024/04/16 08:04:00;;;;;;;5.00;3.80;;;6.70;99.90;;;;;;5443831;26;20236;-72
2024/04/16 08:06:26;;;;;;;4.63;3.27;;;6.70;99.90;;;;;;5443423;26;20275;-72
2024/04/16 08:08:56;;;;;;;6.63;3.50;;;6.70;99.90;;;;;;5410632;26;20469;-72
2024/04/16 08:11:22;;;;;;;3.50;3.20;;;6.60;99.90;;;;;;5416691;26;20776;-72
2024/04/16 08:13:51;;;;;;;6.47;3.80;;;6.60;99.90;;;;;;5444032;26;20263;-72
2024/04/16 08:16:20;;;;;;;3.97;3.77;;;6.60;99.90;;;;;;5443596;26;20355;-73
2024/04/16 08:18:48;;;;;;;6.73;3.63;;;6.70;99.90;;;;;;5445482;26;20262;-72
2024/04/16 08:21:14;;;;;;;5.70;4.10;;;6.60;99.90;;;;;;5447109;26;20762;-72
2024/04/16 08:23:43;;;;;;;4.70;3.87;;;6.60;99.90;;;;;;5447155;26;20229;-73
2024/04/16 08:26:09;;;;;;;6.03;4.27;;;6.50;99.90;;;;;;5447074;26;20264;-72
2024/04/16 08:28:37;;;;;;;3.97;3.67;;;6.40;99.90;;;;;;5447522;26;20271;-72
2024/04/16 08:31:04;;;;;;;6.10;3.90;;;6.40;99.90;;;;;;5447430;26;20232;-72
2024/04/16 08:33:36;;;;;;;4.67;3.67;;;6.40;99.90;;;;;;5447167;26;20516;-72
2024/04/16 08:36:01;;;;;;;5.30;3.80;;;6.50;99.90;;;;;;5447489;26;20231;-73
2024/04/16 08:38:30;;;;;;;4.63;4.23;;;6.50;99.90;;;;;;5446958;26;20712;-72
2024/04/16 08:40:56;;;;;;;4.90;3.90;;;6.60;99.90;;;;;;5447153;26;20290;-73
2024/04/16 08:43:27;;;;;;;5.00;3.90;;;6.70;99.90;;;;;;5447395;26;20228;-73
2024/04/16 08:45:54;;;;;;;5.83;4.20;;;6.70;99.90;;;;;;5447290;26;20228;-72
2024/04/16 08:48:24;;;;;;;4.40;3.70;;;6.70;99.90;;;;;;5447056;26;20245;-73
2024/04/16 08:50:55;;;;;;;6.17;3.50;;;6.70;99.90;;;;;;5446716;26;20279;-72
2024/04/16 08:53:25;;;;;;;4.30;3.90;;;6.80;99.90;;;;;;5446521;26;20615;-72
2024/04/16 08:55:52;;;;;;;4.33;3.73;;;6.90;99.90;;;;;;5447298;26;20251;-72
2024/04/16 08:58:20;;;;;;;6.30;4.20;;;7.00;99.90;;;;;;5447013;26;20240;-73
2024/04/16 09:00:47;;;;;;;7.00;4.10;;;7.10;99.90;;;;;;5424592;26;20229;-73
2024/04/16 09:03:16;;;;;;;7.07;4.00;;;7.20;99.90;;;;;;5445678;26;20232;-73
2024/04/16 09:05:42;;;;;;;6.20;3.93;;;7.30;99.90;;;;;;5447304;26;20764;-72
2024/04/16 09:08:13;;;;;;;7.83;3.70;;;7.40;99.90;;;;;;5446000;26;20349;-72
2024/04/16 09:10:43;;;;;;;6.40;3.57;;;7.40;99.90;;;;;;5446986;26;20228;-72
2024/04/16 09:13:12;;;;;;;7.40;3.80;;;7.40;99.90;;;;;;5446819;26;20386;-73
2024/04/16 09:15:41;;;;;;;7.77;3.50;;;7.50;99.90;;;;;;5447017;26;20271;-73
2024/04/16 09:18:07;;;;;;;5.67;3.13;;;7.60;99.90;;;;;;5447092;26;20274;-72
2024/04/16 09:20:36;;;;;;;7.90;3.60;;;7.70;99.90;;;;;;5446887;26;20263;-72
2024/04/16 09:23:02;;;;;;;8.57;3.10;;;7.70;99.90;;;;;;5446327;26;20228;-73
2024/04/16 09:25:34;;;;;;;7.00;3.70;;;7.70;99.90;;;;;;5446795;26;20301;-72
2024/04/16 09:28:00;;;;;;;3.83;3.00;;;7.70;99.90;;;;;;5446792;26;20271;-72
2024/04/16 09:30:29;;;;;;;4.67;2.77;;;7.70;99.90;;;;;;5446166;26;20236;-73
2024/04/16 09:32:58;;;;;;;5.20;2.57;;;7.70;99.90;;;;;;5446745;26;20232;-72
2024/04/16 09:35:28;;;;;;;4.57;2.57;;;7.80;99.90;;;;;;5446684;26;20228;-72
2024/04/16 09:37:59;;;;;;;5.93;2.50;;;7.90;99.90;;;;;;5446488;26;20278;-73
2024/04/16 09:40:30;;;;;;;4.03;2.30;;;7.90;99.90;;;;;;5446541;26;20756;-73
2024/04/16 09:42:59;;;;;;;4.57;2.17;;;8.00;99.90;;;;;;5446236;26;20228;-73
2024/04/16 09:45:28;;;;;;;6.20;2.77;;;8.10;99.90;;;;;;5446500;26;20707;-72
2024/04/16 09:47:56;;;;;;;3.27;2.30;;;8.20;99.90;;;;;;5446509;26;20244;-73
2024/04/16 09:50:25;;;;;;;8.63;3.97;;;8.40;99.90;;;;;;5446437;26;21034;-73
2024/04/16 09:52:53;;;;;;;4.30;2.20;;;8.50;99.90;;;;;;5446391;26;20267;-72
2024/04/16 09:55:23;;;;;;;5.17;1.67;;;8.60;99.90;;;;;;5446620;26;20303;-73
2024/04/16 09:57:51;;;;;;;5.17;1.87;;;8.70;99.90;;;;;;5446173;26;20884;-72
2024/04/16 10:00:23;;;;;;;3.10;1.87;;;8.80;99.90;;;;;;5446222;26;20240;-73
2024/04/16 10:02:49;;;;;;;2.90;1.60;;;8.80;99.90;;;;;;5446377;26;20259;-73
2024/04/16 10:05:18;;;;;;;3.47;2.03;;;8.80;99.90;;;;;;5446173;26;20228;-72
2024/04/16 10:07:46;;;;;;;5.77;1.60;;;8.70;99.90;;;;;;5445875;26;20664;-72
2024/04/16 10:10:15;;;;;;;4.43;1.90;;;8.70;99.90;;;;;;5445949;26;20271;-73
2024/04/16 10:12:45;;;;;;;2.20;1.80;;;8.60;99.90;;;;;;5445789;26;20248;-72
2024/04/16 10:15:13;;;;;;;2.80;2.10;;;8.60;99.90;;;;;;5445811;26;20278;-73
2024/04/16 10:17:54;;;;;;;3.43;1.80;;;8.60;99.90;;;;;;5445867;26;20237;-73
2024/04/16 10:20:23;;;;;;;2.23;1.87;;;8.60;99.90;;;;;;5445949;26;20573;-73
2024/04/16 10:22:58;;;;;;;3.87;2.00;;;8.50;99.90;;;;;;5445546;26;20240;-73
2024/04/16 10:25:27;;;;;;;5.10;1.90;;;8.50;99.90;;;;;;5445713;26;20227;-73
2024/04/16 10:27:56;;;;;;;3.17;1.90;;;8.40;99.90;;;;;;5445739;26;20266;-73
2024/04/16 10:30:28;;;;;;;2.13;1.57;;;8.50;99.90;;;;;;5445614;26;20221;-73
2024/04/16 10:32:59;;;;;;;3.93;1.80;;;8.50;99.90;;;;;;5445661;26;20228;-73
2024/04/16 10:35:27;;;;;;;2.67;1.50;;;8.50;99.90;;;;;;5445702;26;20349;-73
2024/04/16 10:37:55;;;;;;;3.27;1.70;;;8.50;99.90;;;;;;5426369;26;20723;-72
2024/04/16 10:40:27;;;;;;;2.47;1.80;;;8.60;99.90;;;;;;5409480;26;20759;-72
2024/04/16 10:42:56;;;;;;;4.40;1.70;;;8.70;99.90;;;;;;5408926;26;20229;-72
2024/04/16 10:45:23;;;;;;;2.70;2.00;;;8.70;99.90;;;;;;5445525;26;20229;-73
2024/04/16 10:47:52;;;;;;;3.07;1.80;;;8.70;99.90;;;;;;5445604;26;20284;-73
2024/04/16 10:50:20;;;;;;;4.77;1.80;;;8.80;99.90;;;;;;5445652;26;20311;-72
2024/04/16 10:52:49;;;;;;;2.87;1.47;;;8.80;99.90;;;;;;5445312;26;20764;-73
2024/04/16 10:55:15;;;;;;;5.13;1.40;;;8.90;99.90;;;;;;5472749;26;20227;-73
2024/04/16 10:57:44;;;;;;;2.27;1.40;;;8.90;99.90;;;;;;5481782;26;20243;-73
2024/04/16 11:00:13;;;;;;;5.00;1.57;;;8.90;99.90;;;;;;5471602;26;20248;-73
2024/04/16 11:02:41;;;;;;;3.57;1.77;;;8.50;99.90;;;;;;5445147;26;20336;-72
2024/04/16 11:05:07;;;;;;;2.33;1.67;;;7.90;99.90;;;;;;5445156;26;20850;-72
2024/04/16 11:07:39;;;;;;;1.70;1.60;;;7.70;99.90;;;;;;5430850;26;20241;-72
2024/04/16 11:10:05;;;;;;;3.80;2.33;;;7.50;99.90;;;;;;5409121;26;20275;-73
2024/04/16 11:12:34;;;;;;;2.23;1.90;;;7.70;99.90;;;;;;5409338;26;20334;-72
2024/04/16 11:15:02;;;;;;;2.83;2.00;;;7.80;99.90;;;;;;5409407;26;20731;-72
2024/04/16 11:17:31;;;;;;;2.60;2.30;;;7.90;99.90;;;;;;5409179;26;20230;-72
2024/04/16 11:19:57;;;;;;;3.67;1.80;;;8.00;99.90;;;;;;5409135;26;20218;-73
2024/04/16 11:22:27;;;;;;;5.70;1.93;;;8.10;99.90;;;;;;5408824;26;20276;-72
2024/04/16 11:24:55;;;;;;;3.27;1.50;;;8.20;99.90;;;;;;5409024;26;20335;-72
2024/04/16 11:27:25;;;;;;;2.00;1.60;;;8.50;99.90;;;;;;5409037;26;20577;-72
2024/04/16 11:29:52;;;;;;;2.73;1.53;;;8.80;99.90;;;;;;5409240;26;20229;-73
2024/04/16 11:32:21;;;;;;;2.23;1.80;;;9.10;99.90;;;;;;5409084;26;20277;-73
2024/04/16 11:34:47;;;;;;;3.43;1.60;;;9.50;99.90;;;;;;5409366;26;20229;-72
2024/04/16 11:37:16;;;;;;;2.43;1.73;;;9.70;99.90;;;;;;5417897;26;21033;-73
2024/04/16 11:39:43;;;;;;;4.90;1.40;;;9.90;99.90;;;;;;5444981;26;20279;-73
2024/04/16 11:42:14;;;;;;;3.90;1.83;;;10.20;99.90;;;;;;5444528;26;20231;-72
2024/04/16 11:44:41;;;;;;;2.40;1.57;;;10.30;99.90;;;;;;5444970;26;20723;-73
2024/04/16 11:47:10;;;;;;;2.43;1.40;;;10.10;99.90;;;;;;5444616;26;20734;-73
2024/04/16 11:49:38;;;;;;;1.67;1.20;;;10.00;99.90;;;;;;5444554;26;20274;-72
2024/04/16 11:52:07;;;;;;;3.77;1.53;;;10.00;99.90;;;;;;5443904;26;20236;-73
2024/04/16 11:54:34;;;;;;;3.93;1.43;;;10.00;99.90;;;;;;5447000;26;20232;-73
2024/04/16 11:57:03;;;;;;;3.73;1.63;;;9.80;99.90;;;;;;5447668;26;20270;-73
2024/04/16 11:59:32;;;;;;;3.00;1.40;;;9.80;99.90;;;;;;5448428;26;20308;-73
2024/04/16 12:02:01;;;;;;;1.97;1.03;;;9.70;99.90;;;;;;5448020;26;20682;-73
2024/04/16 12:04:27;;;;;;;2.10;1.20;;;9.70;99.90;;;;;;5447873;26;20243;-73
2024/04/16 12:06:55;;;;;;;1.67;1.13;;;9.70;99.90;;;;;;5447486;26;20262;-73
2024/04/16 12:09:21;;;;;;;1.90;1.30;;;9.70;99.90;;;;;;5447919;26;20274;-72
2024/04/16 12:11:50;;;;;;;1.47;1.10;;;9.60;99.90;;;;;;5447876;26;20228;-73
2024/04/16 12:14:16;;;;;;;2.43;1.20;;;9.60;99.90;;;;;;5447824;26;20231;-72
2024/04/16 12:16:47;;;;;;;2.80;1.20;;;9.60;99.90;;;;;;5447963;26;20232;-73
2024/04/16 12:19:14;;;;;;;1.93;1.10;;;9.40;99.90;;;;;;5447918;26;20739;-72
2024/04/16 12:21:40;;;;;;;6.60;1.20;;;8.90;99.90;;;;;;5447720;26;20239;-73
2024/04/16 12:24:09;;;;;;;1.60;1.10;;;8.40;99.90;;;;;;5447710;26;20275;-73
2024/04/16 12:26:35;;;;;;;1.73;1.10;;;8.10;99.90;;;;;;5447931;26;20267;-73
2024/04/16 12:29:05;;;;;;;1.37;1.27;;;8.00;99.90;;;;;;5447623;26;20240;-73
2024/04/16 12:31:31;;;;;;;1.43;1.20;;;8.00;99.90;;;;;;5447631;26;20236;-72
2024/04/16 12:34:02;;;;;;;1.47;1.20;;;8.00;99.90;;;;;;5447612;26;20769;-72
2024/04/16 12:36:29;;;;;;;1.57;1.40;;;8.10;99.90;;;;;;5446990;26;20236;-73
2024/04/16 12:38:57;;;;;;;4.80;1.23;;;8.30;99.90;;;;;;5447542;26;20300;-73
2024/04/16 12:41:23;;;;;;;1.50;1.40;;;8.50;99.90;;;;;;5447360;26;20232;-73
2024/04/16 12:43:52;;;;;;;2.20;1.30;;;8.80;99.90;;;;;;5446991;26;20299;-73
2024/04/16 12:46:18;;;;;;;1.50;1.40;;;9.00;99.90;;;;;;5446501;26;20292;-73
2024/04/16 12:48:46;;;;;;;1.10;1.10;;;9.20;99.90;;;;;;5446815;26;20244;-73
2024/04/16 12:51:15;;;;;;;1.40;1.30;;;9.40;99.90;;;;;;5446641;26;21108;-73
2024/04/16 12:53:43;;;;;;;1.47;1.00;;;9.60;99.90;;;;;;5446764;26;20244;-73
2024/04/16 12:56:11;;;;;;;1.10;1.10;;;9.60;99.90;;;;;;5446402;26;20695;-73
2024/04/16 12:58:40;;;;;;;2.47;1.50;;;9.70;99.90;;;;;;5447234;26;20315;-73
2024/04/16 13:01:06;;;;;;;2.20;1.23;;;9.70;99.90;;;;;;5446849;26;20244;-72
2024/04/16 13:03:34;;;;;;;1.20;1.20;;;9.70;99.90;;;;;;5444356;26;20291;-73